Home   Weather   India   Urapakkam   Past weeks
Flag for India

Past Weather in Urapakkam, Tamil Nadu, India — Yesterday and Last 2 Weeks

Currently: 86 °F. Passing clouds. (Weather station: Madras / Minambakkam, India). See more current weather

Past Weather in Urapakkam — Graph

°F

Urapakkam Temperature Yesterday

Maximum temperature yesterday: 100 °F (at 2:00 pm)
Minimum temperature yesterday: 84 °F (at 4:30 am)
Average temperature yesterday: 90 °F

High & Low Weather Summary for the Past Weeks

 TemperatureHumidityPressure
High100 °F (Jun 8, 3:00 pm)89% (Jun 7, 11:00 pm)29.83 "Hg (Jun 7, 11:00 pm)
Low79 °F (Jun 6, 3:30 am)37% (Jun 16, 4:00 pm)29.53 "Hg (Jun 13, 3:30 pm)
Average89 °F61%29.67 "Hg
* Reported Jun 4 10:30 pm — Jun 19 11:00 pm, Urapakkam. Weather by CustomWeather, © 2021

Note: Actual official high and low records may vary slightly from our data, if they occured in-between our weather recording intervals... More about our weather records

Urapakkam Weather History for the Previous 24 Hours

Scroll right to see more
 ConditionsComfort  
Time TempWeatherWind HumidityBarometerVisibility
11:00 pm
Sat, Jun 19
86 °FPassing clouds.6 mph70%29.80 "Hg4 mi
10:30 pm86 °FPassing clouds.5 mph70%29.80 "Hg4 mi
10:00 pm88 °FPassing clouds.8 mph66%29.80 "Hg4 mi
9:30 pm88 °FPassing clouds.9 mph66%29.77 "Hg4 mi
9:00 pm88 °FPassing clouds.13 mph70%29.77 "Hg4 mi
8:30 pm88 °FPartly cloudy.10 mph66%29.77 "Hg4 mi
8:00 pm90 °FPartly cloudy.10 mph59%29.77 "Hg4 mi
7:30 pm90 °FPartly cloudy.8 mph59%29.74 "Hg4 mi
7:00 pm90 °FThunderstorms. Broken clouds.9 mph59%29.74 "Hg4 mi
6:30 pm90 °FBroken clouds.3 mph59%29.71 "Hg4 mi
6:00 pm90 °FScattered clouds.14 mph59%29.71 "Hg4 mi
5:30 pm93 °FScattered clouds.14 mph53%29.68 "Hg4 mi
5:00 pm95 °FScattered clouds.9 mph50%29.68 "Hg4 mi
4:30 pm99 °FScattered clouds.9 mph39%29.68 "Hg4 mi
4:00 pm100 °FScattered clouds.9 mph37%29.68 "Hg4 mi
3:30 pm100 °FScattered clouds.10 mph37%29.68 "Hg4 mi
3:00 pm100 °FScattered clouds.10 mph37%29.68 "Hg4 mi
2:30 pm100 °FScattered clouds.9 mph37%29.71 "Hg4 mi
2:00 pm100 °FScattered clouds.9 mph37%29.71 "Hg4 mi
1:30 pm99 °FScattered clouds.9 mph39%29.74 "Hg4 mi
1:00 pm97 °FScattered clouds.7 mph42%29.74 "Hg4 mi
12:30 pm95 °FScattered clouds.8 mph44%29.77 "Hg4 mi
12:00 pm97 °FScattered clouds.14 mph42%29.77 "Hg4 mi
11:30 am97 °FScattered clouds.13 mph42%29.80 "Hg4 mi
11:00 am95 °FScattered clouds.10 mph44%29.80 "Hg4 mi
10:30 am95 °FScattered clouds.12 mph44%29.80 "Hg4 mi
10:00 am93 °FScattered clouds.7 mph49%29.80 "Hg4 mi
9:30 am91 °FScattered clouds.8 mph49%29.80 "Hg4 mi
9:00 am90 °FScattered clouds.6 mph55%29.83 "Hg3 mi
8:30 am88 °FScattered clouds.7 mph55%29.83 "Hg3 mi
8:00 am86 °FScattered clouds.5 mph62%29.80 "Hg3 mi
7:30 am86 °FScattered clouds.5 mph59%29.80 "Hg4 mi
7:00 am84 °FPartly sunny.3 mph66%29.77 "Hg4 mi
6:30 am84 °FPartly sunny.3 mph62%29.77 "Hg4 mi
6:00 am84 °FPassing clouds.3 mph62%29.77 "Hg4 mi
5:30 am84 °FPartly cloudy.No wind66%29.74 "Hg4 mi
5:00 am84 °FPartly cloudy.3 mph66%29.74 "Hg4 mi
4:30 am84 °FPartly cloudy.6 mph66%29.74 "Hg4 mi
4:00 am86 °FPartly cloudy.3 mph66%29.74 "Hg4 mi
3:30 am86 °FPartly cloudy.5 mph66%29.74 "Hg4 mi
3:00 am86 °FPartly cloudy.6 mph70%29.71 "Hg4 mi
2:30 am86 °FPartly cloudy.6 mph70%29.71 "Hg4 mi
2:00 am86 °FPartly cloudy.7 mph70%29.71 "Hg4 mi
1:30 am86 °FPartly cloudy.5 mph75%29.71 "Hg4 mi
1:00 am86 °FPartly cloudy.6 mph79%29.74 "Hg4 mi
12:30 am86 °FPartly cloudy.8 mph79%29.74 "Hg4 mi
12:00 am86 °FPartly cloudy.8 mph79%29.74 "Hg4 mi
Weather by CustomWeather, © 2021

See weather overview